createdAt,value
2022-09-15T00:00:16.537Z,100.00
2022-09-15T00:01:14.284Z,100.00
2022-09-15T00:02:11.882Z,100.00
2022-09-15T00:03:10.387Z,100.00
2022-09-15T00:04:07.880Z,100.00
2022-09-15T00:05:05.399Z,100.00
2022-09-15T00:06:09.437Z,100.00
2022-09-15T00:07:07.281Z,100.00
2022-09-15T00:08:04.504Z,100.00
2022-09-15T00:09:03.695Z,100.00
2022-09-15T00:10:02.169Z,100.00
2022-09-15T00:11:17.829Z,100.00
2022-09-15T00:12:17.164Z,100.00
2022-09-15T00:13:14.986Z,100.00
2022-09-15T00:14:24.860Z,100.00
2022-09-15T00:15:22.066Z,100.00
2022-09-15T00:16:19.580Z,100.00
2022-09-15T00:17:16.469Z,100.00
2022-09-15T00:18:16.118Z,100.00
2022-09-15T00:19:13.312Z,100.00
2022-09-15T00:20:12.820Z,100.00
2022-09-15T00:21:11.669Z,100.00
2022-09-15T00:22:08.469Z,100.00
2022-09-15T00:23:06.479Z,100.00
2022-09-15T00:24:03.772Z,100.00
2022-09-15T00:25:00.669Z,100.00
2022-09-15T00:25:57.993Z,100.00
2022-09-15T00:26:55.539Z,100.00
2022-09-15T00:27:54.785Z,100.00
2022-09-15T00:28:53.584Z,100.00
2022-09-15T00:29:52.578Z,100.00
2022-09-15T00:30:53.333Z,100.00
2022-09-15T00:31:51.268Z,100.00
2022-09-15T00:32:53.324Z,100.00
2022-09-15T00:33:52.149Z,100.00
2022-09-15T00:34:52.393Z,100.00
2022-09-15T00:35:52.660Z,100.00
2022-09-15T00:36:50.685Z,100.00
2022-09-15T00:37:47.851Z,100.00
2022-09-15T00:38:45.610Z,100.00
2022-09-15T00:39:45.405Z,100.00
2022-09-15T00:40:51.042Z,100.00
2022-09-15T00:41:49.698Z,100.00
2022-09-15T00:42:47.517Z,100.00
2022-09-15T00:43:56.572Z,100.00
2022-09-15T00:44:56.456Z,100.00
2022-09-15T00:45:53.367Z,100.00
2022-09-15T00:47:15.330Z,100.00
2022-09-15T00:48:14.024Z,100.00
2022-09-15T00:49:18.293Z,100.00
2022-09-15T00:50:16.708Z,100.00
2022-09-15T00:51:15.650Z,100.00
2022-09-15T00:52:16.044Z,100.00
2022-09-15T00:53:12.875Z,100.00
2022-09-15T00:54:13.551Z,100.00
2022-09-15T00:55:14.649Z,100.00
2022-09-15T00:56:13.225Z,100.00
2022-09-15T00:58:55.897Z,100.00
2022-09-15T00:59:52.765Z,100.00
2022-09-15T01:00:55.548Z,100.00
2022-09-15T01:02:15.318Z,100.00
2022-09-15T01:03:13.177Z,100.00
2022-09-15T01:04:09.976Z,100.00
2022-09-15T01:05:10.698Z,100.00
2022-09-15T01:06:12.188Z,100.00
2022-09-15T01:07:10.961Z,100.00
2022-09-15T01:08:23.181Z,100.00
2022-09-15T01:09:24.151Z,100.00
2022-09-15T01:10:29.122Z,100.00
2022-09-15T01:11:25.981Z,100.00
2022-09-15T01:13:23.417Z,100.00
2022-09-15T01:14:21.216Z,100.00
2022-09-15T01:15:23.308Z,100.00
2022-09-15T01:16:28.863Z,100.00
2022-09-15T01:17:33.271Z,100.00
2022-09-15T01:19:32.737Z,100.00
2022-09-15T01:22:00.016Z,100.00
2022-09-15T01:24:26.817Z,100.00
2022-09-15T01:25:47.391Z,100.00
2022-09-15T01:27:37.782Z,100.00
2022-09-15T01:29:06.763Z,100.00
2022-09-15T01:31:11.274Z,100.00
2022-09-15T01:32:56.523Z,100.00
2022-09-15T01:34:13.705Z,100.00
2022-09-15T01:36:25.881Z,100.00
2022-09-15T01:37:30.256Z,100.00
2022-09-15T01:38:44.276Z,100.00
2022-09-15T01:39:43.762Z,100.00
2022-09-15T01:41:04.130Z,100.00
2022-09-15T01:42:02.705Z,100.00
2022-09-15T01:43:00.655Z,100.00
2022-09-15T01:44:16.996Z,100.00
2022-09-15T01:45:21.287Z,100.00
2022-09-15T01:46:21.084Z,100.00
2022-09-15T01:47:19.569Z,100.00
2022-09-15T01:48:18.370Z,100.00
2022-09-15T01:49:24.132Z,100.00
2022-09-15T01:50:25.042Z,100.00
2022-09-15T01:51:22.783Z,100.00
2022-09-15T01:52:21.679Z,100.00
2022-09-15T01:53:20.994Z,100.00
2022-09-15T01:55:29.670Z,100.00
2022-09-15T01:56:27.016Z,100.00
2022-09-15T01:57:26.941Z,100.00
2022-09-15T01:58:25.685Z,100.00
2022-09-15T01:59:25.275Z,100.00
2022-09-15T02:00:26.291Z,100.00
2022-09-15T02:01:33.324Z,100.00
2022-09-15T02:05:26.570Z,100.00
2022-09-15T02:06:44.532Z,100.00
2022-09-15T02:10:37.684Z,100.00
2022-09-15T02:11:44.887Z,100.00
2022-09-15T02:12:51.891Z,100.00
2022-09-15T02:15:01.473Z,100.00
2022-09-15T02:15:59.628Z,100.00
2022-09-15T02:16:57.784Z,100.00
2022-09-15T02:17:55.603Z,100.00
2022-09-15T02:19:04.534Z,100.00
2022-09-15T02:20:43.786Z,100.00
2022-09-15T02:22:00.257Z,100.00
2022-09-15T02:22:57.513Z,100.00
2022-09-15T02:23:55.242Z,100.00
2022-09-15T02:25:13.198Z,100.00
2022-09-15T02:26:17.616Z,100.00
2022-09-15T02:27:22.241Z,100.00
2022-09-15T02:28:21.888Z,100.00
2022-09-15T02:29:18.876Z,100.00
2022-09-15T02:30:20.538Z,100.00
2022-09-15T02:31:24.096Z,100.00
2022-09-15T02:32:23.267Z,100.00
2022-09-15T02:33:20.858Z,100.00
2022-09-15T02:34:27.981Z,100.00
2022-09-15T02:35:25.227Z,100.00
2022-09-15T02:36:22.417Z,100.00
2022-09-15T02:37:22.280Z,100.00
2022-09-15T02:38:20.440Z,100.00
2022-09-15T02:39:19.508Z,100.00
2022-09-15T02:40:16.448Z,100.00
2022-09-15T02:41:14.074Z,100.00
2022-09-15T02:42:11.813Z,100.00
2022-09-15T02:43:13.929Z,100.00
2022-09-15T02:44:14.328Z,100.00
2022-09-15T02:45:11.317Z,100.00
2022-09-15T02:46:09.989Z,100.00
2022-09-15T02:47:08.903Z,100.00
2022-09-15T02:57:19.629Z,100.00
2022-09-15T02:59:22.261Z,100.00
2022-09-15T03:00:23.340Z,100.00
2022-09-15T03:01:21.633Z,100.00
2022-09-15T03:02:20.437Z,100.00
2022-09-15T03:03:21.041Z,100.00
2022-09-15T03:04:25.456Z,100.00
2022-09-15T03:05:27.731Z,100.00
2022-09-15T03:06:25.627Z,100.00
2022-09-15T03:07:24.265Z,100.00
2022-09-15T03:08:21.339Z,100.00
2022-09-15T03:09:18.199Z,100.00
2022-09-15T03:10:15.536Z,100.00
2022-09-15T03:11:12.722Z,100.00
2022-09-15T03:12:09.645Z,100.00
2022-09-15T03:13:09.016Z,100.00
2022-09-15T03:14:06.145Z,100.00
2022-09-15T03:15:02.859Z,100.00
2022-09-15T03:16:00.185Z,100.00
2022-09-15T03:16:59.270Z,100.00
2022-09-15T03:17:57.202Z,100.00
2022-09-15T03:18:54.992Z,100.00
2022-09-15T03:19:52.595Z,100.00
2022-09-15T03:20:49.365Z,100.00
2022-09-15T03:21:52.418Z,100.00
2022-09-15T03:22:52.985Z,100.00
2022-09-15T03:23:53.842Z,100.00
2022-09-15T03:24:52.440Z,100.00
2022-09-15T03:25:49.356Z,100.00
2022-09-15T03:26:49.308Z,100.00
2022-09-15T03:27:46.416Z,100.00
2022-09-15T03:28:44.312Z,100.00
2022-09-15T03:29:41.370Z,100.00
2022-09-15T03:30:39.597Z,100.00
2022-09-15T03:31:37.499Z,100.00
2022-09-15T03:32:34.654Z,100.00
2022-09-15T03:33:33.598Z,100.00
2022-09-15T03:34:32.473Z,100.00
2022-09-15T03:35:34.446Z,100.00
2022-09-15T03:36:35.817Z,100.00
2022-09-15T03:37:35.713Z,100.00
2022-09-15T03:38:36.226Z,100.00
2022-09-15T03:39:37.572Z,100.00
2022-09-15T03:40:37.822Z,100.00
2022-09-15T03:41:37.581Z,100.00
2022-09-15T03:42:37.565Z,100.00
2022-09-15T03:43:37.838Z,100.00
2022-09-15T03:44:37.805Z,100.00
2022-09-15T03:45:35.734Z,100.00
2022-09-15T03:46:46.209Z,100.00
2022-09-15T03:47:43.064Z,100.00
2022-09-15T03:48:43.651Z,100.00
2022-09-15T03:49:42.995Z,100.00
2022-09-15T03:50:46.240Z,100.00
2022-09-15T03:51:47.867Z,100.00
2022-09-15T03:52:47.454Z,100.00
2022-09-15T03:53:46.982Z,100.00
2022-09-15T03:54:49.005Z,100.00
2022-09-15T03:55:47.798Z,100.00
2022-09-15T03:56:49.194Z,100.00
2022-09-15T03:57:47.655Z,100.00
2022-09-15T03:58:53.983Z,100.00
2022-09-15T04:01:12.817Z,100.00
2022-09-15T04:02:23.875Z,100.00
2022-09-15T04:03:27.512Z,100.00
2022-09-15T04:04:28.606Z,100.00
2022-09-15T04:06:58.321Z,100.00
2022-09-15T04:15:02.449Z,100.00
2022-09-15T04:16:11.828Z,100.00
2022-09-15T04:17:14.486Z,100.00
2022-09-15T04:21:39.251Z,100.00
2022-09-15T04:22:44.165Z,100.00
2022-09-15T04:29:24.789Z,100.00
2022-09-15T04:30:21.517Z,100.00
2022-09-15T04:31:19.086Z,100.00
2022-09-15T04:34:29.755Z,100.00
2022-09-15T04:35:26.965Z,100.00
2022-09-15T04:36:25.141Z,100.00
2022-09-15T04:37:22.663Z,100.00
2022-09-15T04:38:19.507Z,100.00
2022-09-15T04:39:16.352Z,100.00
2022-09-15T04:40:13.252Z,100.00
2022-09-15T04:41:12.296Z,100.00
2022-09-15T04:42:09.039Z,100.00
2022-09-15T04:43:06.598Z,100.00
2022-09-15T04:44:03.422Z,100.00
2022-09-15T04:45:00.187Z,100.00
2022-09-15T04:45:58.003Z,100.00
2022-09-15T04:46:55.356Z,100.00
2022-09-15T04:47:53.368Z,100.00
2022-09-15T04:48:50.146Z,100.00
2022-09-15T04:49:47.099Z,100.00
2022-09-15T04:50:44.121Z,100.00
2022-09-15T04:51:41.680Z,100.00
2022-09-15T04:52:42.234Z,100.00
2022-09-15T04:53:39.566Z,100.00
2022-09-15T04:55:41.599Z,100.00
2022-09-15T04:56:38.427Z,100.00
2022-09-15T04:57:44.760Z,100.00
2022-09-15T04:58:43.764Z,100.00
2022-09-15T04:59:41.124Z,100.00
2022-09-15T05:00:43.034Z,100.00
2022-09-15T05:01:51.275Z,100.00
2022-09-15T05:02:55.267Z,100.00
2022-09-15T05:03:52.612Z,100.00
2022-09-15T05:04:51.607Z,100.00
2022-09-15T05:05:48.717Z,100.00
2022-09-15T05:06:48.122Z,100.00
2022-09-15T05:07:45.049Z,100.00
2022-09-15T05:08:41.856Z,100.00
2022-09-15T05:09:39.800Z,100.00
2022-09-15T05:10:38.177Z,100.00
2022-09-15T05:11:34.961Z,100.00
2022-09-15T05:12:31.711Z,100.00
2022-09-15T05:13:32.357Z,100.00
2022-09-15T05:14:30.115Z,100.00
2022-09-15T05:15:28.054Z,100.00
2022-09-15T05:16:27.605Z,100.00
2022-09-15T05:17:26.882Z,100.00
2022-09-15T05:18:23.783Z,100.00
2022-09-15T05:19:20.574Z,100.00
2022-09-15T05:20:17.659Z,100.00
2022-09-15T05:21:15.631Z,100.00
2022-09-15T05:22:12.337Z,100.00
2022-09-15T05:23:09.103Z,100.00
2022-09-15T05:24:06.046Z,100.00
2022-09-15T05:25:05.935Z,100.00
2022-09-15T05:26:04.751Z,100.00
2022-09-15T05:27:01.499Z,100.00
2022-09-15T05:27:58.243Z,100.00
2022-09-15T05:28:55.677Z,100.00
2022-09-15T05:30:09.741Z,100.00
2022-09-15T05:31:10.638Z,100.00
2022-09-15T05:32:07.453Z,100.00
2022-09-15T05:33:05.087Z,100.00
2022-09-15T05:34:04.447Z,100.00
2022-09-15T05:35:04.149Z,100.00
2022-09-15T05:36:01.849Z,100.00
2022-09-15T05:36:59.121Z,100.00
2022-09-15T05:37:55.865Z,100.00
2022-09-15T05:38:53.474Z,100.00
2022-09-15T05:39:50.306Z,100.00
2022-09-15T05:40:47.233Z,100.00
2022-09-15T05:41:43.990Z,100.00
2022-09-15T05:42:41.824Z,100.00
2022-09-15T05:43:39.156Z,100.00
2022-09-15T05:44:36.304Z,100.00
2022-09-15T05:45:33.180Z,100.00
2022-09-15T05:46:30.221Z,100.00
2022-09-15T05:47:27.204Z,100.00
2022-09-15T05:48:24.673Z,100.00
2022-09-15T05:49:21.497Z,100.00
2022-09-15T05:50:18.319Z,100.00
2022-09-15T05:51:15.300Z,100.00
2022-09-15T05:52:15.119Z,100.00
2022-09-15T05:53:12.110Z,100.00
2022-09-15T05:54:09.070Z,100.00
2022-09-15T05:55:06.130Z,100.00
2022-09-15T05:56:07.530Z,100.00
2022-09-15T05:57:07.456Z,100.00
2022-09-15T05:58:04.383Z,100.00
2022-09-15T05:59:02.300Z,100.00
2022-09-15T05:59:59.709Z,100.00
2022-09-15T06:01:14.051Z,100.00
2022-09-15T06:02:11.761Z,100.00
2022-09-15T06:03:13.169Z,100.00
2022-09-15T06:04:14.243Z,100.00
2022-09-15T06:05:11.545Z,100.00
2022-09-15T06:06:09.174Z,100.00
2022-09-15T06:07:06.151Z,100.00
2022-09-15T06:08:03.108Z,100.00
2022-09-15T06:09:01.958Z,100.00
2022-09-15T06:09:59.407Z,100.00
2022-09-15T06:11:03.069Z,100.00
2022-09-15T06:12:01.926Z,100.00
2022-09-15T06:12:58.928Z,100.00
2022-09-15T06:14:05.495Z,100.00
2022-09-15T06:15:02.609Z,100.00
2022-09-15T06:16:05.925Z,100.00
2022-09-15T06:17:03.871Z,100.00
2022-09-15T06:18:02.618Z,100.00
2022-09-15T06:19:01.514Z,100.00
2022-09-15T06:20:00.629Z,100.00
2022-09-15T06:20:57.534Z,100.00
2022-09-15T06:21:55.645Z,100.00
2022-09-15T06:22:56.894Z,100.00
2022-09-15T06:24:01.965Z,100.00
2022-09-15T06:25:00.653Z,100.00
2022-09-15T06:26:06.384Z,100.00
2022-09-15T06:27:03.414Z,100.00
2022-09-15T06:28:04.491Z,100.00
2022-09-15T06:29:04.096Z,100.00
2022-09-15T06:30:01.437Z,100.00
2022-09-15T06:30:58.738Z,100.00
2022-09-15T06:31:57.142Z,100.00
2022-09-15T06:32:54.822Z,100.00
2022-09-15T06:33:53.010Z,100.00
2022-09-15T06:34:56.213Z,100.00
2022-09-15T06:35:53.278Z,100.00
2022-09-15T06:36:58.026Z,100.00
2022-09-15T06:37:55.011Z,100.00
2022-09-15T06:38:51.807Z,100.00
2022-09-15T06:39:48.870Z,100.00
2022-09-15T06:40:45.611Z,100.00
2022-09-15T06:42:01.399Z,100.00
2022-09-15T06:43:02.253Z,100.00
2022-09-15T06:44:06.818Z,100.00
2022-09-15T06:45:05.174Z,100.00
2022-09-15T06:46:07.383Z,100.00
2022-09-15T06:47:15.330Z,100.00
2022-09-15T06:50:42.618Z,100.00
2022-09-15T06:51:47.519Z,100.00
2022-09-15T06:52:44.703Z,100.00
2022-09-15T06:53:45.485Z,100.00
2022-09-15T06:54:48.679Z,100.00
2022-09-15T06:55:47.511Z,100.00
2022-09-15T06:56:46.618Z,100.00
2022-09-15T06:57:46.619Z,100.00
2022-09-15T06:58:44.851Z,100.00
2022-09-15T06:59:41.616Z,100.00
2022-09-15T07:00:39.425Z,100.00
2022-09-15T07:01:38.976Z,100.00
2022-09-15T07:02:35.699Z,100.00
2022-09-15T07:03:36.181Z,100.00
2022-09-15T07:04:38.790Z,100.00
2022-09-15T07:05:35.562Z,100.00
2022-09-15T07:06:32.956Z,100.00
2022-09-15T07:07:37.261Z,100.00
2022-09-15T07:08:36.652Z,100.00
2022-09-15T07:09:33.651Z,100.00
2022-09-15T07:10:34.926Z,100.00
2022-09-15T07:12:44.748Z,100.00
2022-09-15T07:13:44.709Z,100.00
2022-09-15T07:14:43.969Z,100.00
2022-09-15T07:15:46.752Z,100.00
2022-09-15T07:17:57.242Z,100.00
2022-09-15T07:19:01.610Z,100.00
2022-09-15T07:20:04.073Z,100.00
2022-09-15T07:21:13.034Z,100.00
2022-09-15T07:22:12.142Z,100.00
2022-09-15T07:23:09.028Z,100.00
2022-09-15T07:24:07.431Z,100.00
2022-09-15T07:25:04.590Z,100.00
2022-09-15T07:26:08.771Z,100.00
2022-09-15T07:27:06.499Z,100.00
2022-09-15T07:28:03.684Z,100.00
2022-09-15T07:29:01.915Z,100.00
2022-09-15T07:29:59.013Z,100.00
2022-09-15T07:30:59.956Z,100.00
2022-09-15T07:31:57.666Z,100.00
2022-09-15T07:32:55.240Z,100.00
2022-09-15T07:33:52.107Z,100.00
2022-09-15T07:34:58.366Z,100.00
2022-09-15T07:35:56.232Z,100.00
2022-09-15T07:37:16.385Z,100.00
2022-09-15T07:38:13.403Z,100.00
2022-09-15T07:39:13.161Z,100.00
2022-09-15T07:40:12.742Z,100.00
2022-09-15T07:41:14.260Z,100.00
2022-09-15T07:42:11.048Z,100.00
2022-09-15T07:43:10.803Z,100.00
2022-09-15T07:44:08.489Z,100.00
2022-09-15T07:45:06.175Z,100.00
2022-09-15T07:46:03.427Z,100.00
2022-09-15T07:47:00.795Z,100.00
2022-09-15T07:47:58.833Z,100.00
2022-09-15T07:48:56.575Z,100.00
2022-09-15T07:49:54.826Z,100.00
2022-09-15T07:50:52.169Z,100.00
2022-09-15T07:51:49.052Z,100.00
2022-09-15T07:52:45.755Z,100.00
2022-09-15T07:53:44.161Z,100.00
2022-09-15T07:54:41.919Z,100.00
2022-09-15T07:55:38.520Z,100.00
2022-09-15T07:56:36.052Z,100.00
2022-09-15T07:57:33.168Z,100.00
2022-09-15T07:58:29.806Z,100.00
2022-09-15T07:59:26.584Z,100.00
2022-09-15T08:00:23.634Z,100.00
2022-09-15T08:01:22.402Z,100.00
2022-09-15T08:02:20.632Z,100.00
2022-09-15T08:03:36.013Z,100.00
2022-09-15T08:04:34.462Z,100.00
2022-09-15T08:05:49.267Z,100.00
2022-09-15T08:09:37.032Z,100.00
2022-09-15T08:10:35.641Z,100.00
2022-09-15T08:11:37.407Z,100.00
2022-09-15T08:12:53.150Z,100.00
2022-09-15T08:13:51.123Z,100.00
2022-09-15T08:14:50.590Z,100.00
2022-09-15T08:15:49.852Z,100.00
2022-09-15T08:16:46.660Z,100.00
2022-09-15T08:17:43.551Z,100.00
2022-09-15T08:18:42.387Z,100.00
2022-09-15T08:19:39.511Z,100.00
2022-09-15T08:20:39.225Z,100.00
2022-09-15T08:21:35.941Z,100.00
2022-09-15T08:28:08.766Z,100.00
2022-09-15T08:35:52.294Z,100.00
2022-09-15T08:36:49.116Z,100.00
2022-09-15T08:37:46.561Z,100.00
2022-09-15T08:38:44.398Z,100.00
2022-09-15T08:39:41.644Z,100.00
2022-09-15T08:40:38.343Z,100.00
2022-09-15T08:41:45.590Z,100.00
2022-09-15T08:48:36.735Z,100.00
2022-09-15T08:49:57.904Z,100.00
2022-09-15T08:51:03.815Z,100.00
2022-09-15T08:52:05.919Z,100.00
2022-09-15T08:53:23.297Z,100.00
2022-09-15T09:02:37.632Z,100.00
2022-09-15T09:04:07.298Z,100.00
2022-09-15T09:05:29.652Z,100.00
2022-09-15T09:07:00.520Z,100.00
2022-09-15T09:08:28.245Z,100.00
2022-09-15T09:09:49.446Z,100.00
2022-09-15T09:10:51.943Z,100.00
2022-09-15T09:12:31.540Z,100.00
2022-09-15T09:13:46.022Z,100.00
2022-09-15T09:15:14.977Z,100.00
2022-09-15T09:16:11.709Z,100.00
2022-09-15T09:17:21.324Z,100.00
2022-09-15T09:18:30.494Z,100.00
2022-09-15T09:31:18.465Z,100.00
2022-09-15T09:32:32.210Z,100.00
2022-09-15T09:34:06.078Z,100.00
2022-09-15T09:35:30.140Z,100.00
2022-09-15T09:36:30.513Z,100.00
2022-09-15T09:37:30.536Z,100.00
2022-09-15T09:38:38.214Z,100.00
2022-09-15T09:39:47.077Z,100.00
2022-09-15T09:40:47.382Z,100.00
2022-09-15T09:41:47.386Z,99.48
2022-09-15T09:42:44.693Z,97.28
2022-09-15T09:43:43.061Z,95.19
2022-09-15T09:44:43.282Z,93.99
2022-09-15T09:45:43.125Z,90.23
2022-09-15T09:46:41.088Z,91.52
2022-09-15T09:47:40.924Z,91.41
2022-09-15T09:48:38.420Z,90.54
2022-09-15T09:49:39.214Z,88.87
2022-09-15T09:50:43.705Z,91.70
2022-09-15T09:51:49.172Z,95.36
2022-09-15T09:52:46.180Z,92.82
2022-09-15T09:53:46.367Z,96.03
2022-09-15T09:54:45.614Z,99.72
2022-09-15T09:55:42.540Z,100.00
2022-09-15T09:56:45.383Z,100.00
2022-09-15T09:57:48.342Z,99.23
2022-09-15T09:58:49.355Z,98.20
2022-09-15T09:59:47.400Z,100.00
2022-09-15T10:00:44.497Z,100.00
2022-09-15T10:01:44.258Z,100.00
2022-09-15T10:02:49.069Z,100.00
2022-09-15T10:08:09.275Z,100.00
2022-09-15T10:09:23.252Z,100.00
2022-09-15T10:10:43.077Z,100.00
2022-09-15T10:12:39.765Z,100.00
2022-09-15T10:13:58.055Z,98.24
2022-09-15T10:14:56.477Z,92.46
2022-09-15T10:15:54.698Z,90.61
2022-09-15T10:17:09.991Z,88.57
2022-09-15T10:18:07.639Z,90.42
2022-09-15T10:19:09.820Z,90.60
2022-09-15T10:20:07.611Z,82.01
2022-09-15T10:21:08.494Z,83.02
2022-09-15T10:22:05.178Z,84.62
2022-09-15T10:23:26.086Z,87.31
2022-09-15T10:24:55.356Z,87.38
2022-09-15T10:25:59.649Z,86.28
2022-09-15T10:27:16.535Z,85.61
2022-09-15T10:28:21.856Z,84.95
2022-09-15T10:29:19.056Z,86.80
2022-09-15T10:30:16.690Z,83.21
2022-09-15T10:33:35.191Z,75.11
2022-09-15T10:34:32.299Z,71.42
2022-09-15T10:35:29.533Z,62.93
2022-09-15T10:36:30.160Z,57.97
2022-09-15T10:37:45.250Z,58.84
2022-09-15T10:38:56.765Z,60.28
2022-09-15T10:39:55.159Z,59.83
2022-09-15T10:41:04.127Z,60.43
2022-09-15T10:42:36.900Z,55.08
2022-09-15T10:43:58.785Z,55.94
2022-09-15T10:45:21.186Z,53.07
2022-09-15T10:46:29.029Z,51.32
2022-09-15T10:47:49.046Z,49.48
2022-09-15T10:49:13.835Z,49.79
2022-09-15T10:50:55.063Z,45.57
2022-09-15T10:52:19.849Z,46.73
2022-09-15T10:53:32.141Z,48.13
2022-09-15T10:54:42.208Z,48.24
2022-09-15T10:55:53.612Z,51.50
2022-09-15T10:56:55.358Z,54.49
2022-09-15T10:58:18.491Z,54.84
2022-09-15T10:59:34.204Z,54.09
2022-09-15T11:00:44.638Z,54.64
2022-09-15T11:01:47.593Z,53.85
2022-09-15T11:03:08.080Z,51.49
2022-09-15T11:04:27.150Z,50.13
2022-09-15T11:05:46.784Z,51.18
2022-09-15T11:07:52.218Z,51.64
2022-09-15T11:08:55.221Z,51.84
2022-09-15T11:10:00.623Z,51.85
2022-09-15T11:11:20.220Z,53.23
2022-09-15T11:12:41.917Z,53.64
2022-09-15T11:13:57.577Z,54.65
2022-09-15T11:15:36.005Z,55.90
2022-09-15T11:17:17.867Z,54.07
2022-09-15T11:18:29.645Z,50.25
2022-09-15T11:19:42.998Z,49.84
2022-09-15T11:20:57.881Z,49.43
2022-09-15T11:22:00.389Z,51.96
2022-09-15T11:22:59.678Z,52.95
2022-09-15T11:24:19.848Z,52.23
2022-09-15T11:25:21.008Z,53.86
2022-09-15T11:26:22.711Z,53.50
2022-09-15T11:27:55.160Z,53.76
2022-09-15T11:30:02.341Z,53.30
2022-09-15T11:31:25.097Z,52.59
2022-09-15T11:32:28.108Z,51.77
2022-09-15T11:33:35.187Z,52.63
2022-09-15T11:34:47.221Z,53.22
2022-09-15T11:35:49.821Z,52.74
2022-09-15T11:36:48.151Z,52.34
2022-09-15T11:37:48.168Z,50.73
2022-09-15T11:39:26.811Z,49.49
2022-09-15T11:40:47.359Z,48.49
2022-09-15T11:42:10.138Z,45.80
2022-09-15T11:43:37.561Z,41.36
2022-09-15T11:44:47.891Z,41.88
2022-09-15T11:45:47.970Z,40.66
2022-09-15T11:47:01.157Z,42.91
2022-09-15T11:48:04.749Z,43.16
2022-09-15T11:49:22.482Z,43.42
2022-09-15T11:50:32.978Z,43.89
2022-09-15T11:51:31.442Z,42.79
2022-09-15T11:52:43.418Z,42.03
2022-09-15T11:53:55.886Z,43.30
2022-09-15T11:55:14.972Z,43.52
2022-09-15T11:56:29.824Z,42.54
2022-09-15T11:57:31.185Z,42.01
2022-09-15T11:58:36.568Z,41.89
2022-09-15T11:59:58.027Z,43.02
2022-09-15T12:01:01.167Z,43.81
2022-09-15T12:02:23.183Z,44.08
2022-09-15T12:03:59.134Z,42.76
2022-09-15T12:05:15.000Z,43.42
2022-09-15T12:06:44.767Z,44.22
2022-09-15T12:07:59.638Z,43.76
2022-09-15T12:09:02.957Z,43.49
2022-09-15T12:10:07.139Z,43.92
2022-09-15T12:11:08.187Z,43.98
2022-09-15T12:12:15.208Z,43.07
2022-09-15T12:13:19.554Z,43.42
2022-09-15T12:14:27.728Z,43.62
2022-09-15T12:15:27.857Z,43.24
2022-09-15T12:16:24.843Z,43.92
2022-09-15T12:17:31.886Z,44.08
2022-09-15T12:18:46.546Z,44.11
2022-09-15T12:19:51.173Z,45.61
2022-09-15T12:21:05.947Z,44.97
2022-09-15T12:22:36.336Z,46.10
2022-09-15T12:23:36.931Z,47.92
2022-09-15T12:24:38.101Z,49.25
2022-09-15T12:25:45.296Z,49.97
2022-09-15T12:26:45.673Z,50.82
2022-09-15T12:27:42.717Z,52.24
2022-09-15T12:28:54.882Z,51.98
2022-09-15T12:29:53.206Z,51.14
2022-09-15T12:30:51.364Z,50.99
2022-09-15T12:31:48.705Z,50.85
2022-09-15T12:32:45.592Z,49.30
2022-09-15T12:33:42.477Z,48.82
2022-09-15T12:34:40.728Z,47.31
2022-09-15T12:35:38.295Z,47.28
2022-09-15T12:36:45.749Z,47.16
2022-09-15T12:37:44.805Z,48.05
2022-09-15T12:38:48.095Z,48.46
2022-09-15T12:39:48.637Z,49.04
2022-09-15T12:40:45.636Z,50.70
2022-09-15T12:41:50.263Z,50.86
2022-09-15T12:42:47.653Z,50.68
2022-09-15T12:44:12.509Z,51.11
2022-09-15T12:45:27.397Z,50.66
2022-09-15T12:46:24.495Z,49.86
2022-09-15T12:47:35.891Z,50.09
2022-09-15T12:48:33.996Z,50.37
2022-09-15T12:49:34.539Z,50.18
2022-09-15T12:50:33.160Z,50.88
2022-09-15T12:51:30.112Z,51.96
2022-09-15T12:52:27.234Z,53.04
2022-09-15T12:53:31.801Z,52.42
2022-09-15T12:54:35.452Z,53.95
2022-09-15T12:55:46.286Z,56.46
2022-09-15T12:56:43.479Z,56.93
2022-09-15T12:57:40.418Z,56.98
2022-09-15T12:58:47.312Z,56.99
2022-09-15T12:59:45.690Z,57.16
2022-09-15T13:01:00.676Z,55.09
2022-09-15T13:02:02.663Z,56.32
2022-09-15T13:03:01.953Z,56.15
2022-09-15T13:03:59.043Z,56.44
2022-09-15T13:04:58.080Z,55.59
2022-09-15T13:06:19.383Z,56.25
2022-09-15T13:07:21.210Z,55.41
2022-09-15T13:09:29.985Z,57.74
2022-09-15T13:10:41.636Z,57.95
2022-09-15T13:11:40.207Z,59.18
2022-09-15T13:12:38.736Z,59.16
2022-09-15T13:13:48.976Z,58.85
2022-09-15T13:14:49.584Z,58.79
2022-09-15T13:15:48.089Z,58.35
2022-09-15T13:16:59.864Z,58.85
2022-09-15T13:18:10.407Z,60.23
2022-09-15T13:19:21.166Z,62.88
2022-09-15T13:20:23.523Z,64.97
2022-09-15T13:21:24.220Z,67.74
2022-09-15T13:22:30.330Z,70.89
2022-09-15T13:23:28.526Z,72.75
2022-09-15T13:24:47.638Z,76.31
2022-09-15T13:25:45.198Z,78.26
2022-09-15T13:26:42.164Z,79.60
2022-09-15T13:27:42.281Z,79.72
2022-09-15T13:28:39.119Z,80.84
2022-09-15T13:29:50.052Z,82.68
2022-09-15T13:30:59.079Z,84.22
2022-09-15T13:32:06.196Z,85.58
2022-09-15T13:33:16.081Z,86.96
2022-09-15T13:35:06.163Z,89.76
2022-09-15T13:36:26.817Z,92.52
2022-09-15T13:39:31.948Z,91.87
2022-09-15T13:41:03.670Z,90.40
2022-09-15T13:42:25.738Z,92.16
2022-09-15T13:43:42.547Z,95.90
2022-09-15T13:44:51.428Z,93.49
2022-09-15T13:46:11.913Z,92.90
2022-09-15T13:47:23.354Z,94.92
2022-09-15T13:48:32.537Z,95.67
2022-09-15T13:49:39.335Z,95.63
2022-09-15T13:50:41.057Z,95.88
2022-09-15T13:51:37.973Z,95.17
2022-09-15T13:53:06.112Z,95.67
2022-09-15T13:54:07.089Z,97.02
2022-09-15T13:55:28.004Z,99.05
2022-09-15T13:56:41.346Z,100.00
2022-09-15T13:59:11.489Z,100.00
2022-09-15T14:00:25.352Z,100.00
2022-09-15T14:01:24.249Z,100.00
2022-09-15T14:02:21.382Z,100.00
2022-09-15T14:03:20.466Z,100.00
2022-09-15T14:04:34.381Z,100.00
2022-09-15T14:05:34.952Z,100.00
2022-09-15T14:06:53.623Z,100.00
2022-09-15T14:07:59.189Z,100.00
2022-09-15T14:09:17.728Z,100.00
2022-09-15T14:10:31.696Z,100.00
2022-09-15T14:11:32.449Z,100.00
2022-09-15T14:12:36.421Z,100.00
2022-09-15T14:13:37.386Z,100.00
2022-09-15T14:14:39.387Z,100.00
2022-09-15T14:15:37.592Z,100.00
2022-09-15T14:16:41.289Z,100.00
2022-09-15T14:17:44.267Z,100.00
2022-09-15T14:18:43.063Z,100.00
2022-09-15T14:19:41.154Z,100.00
2022-09-15T14:20:38.196Z,100.00
2022-09-15T14:21:35.148Z,100.00
2022-09-15T14:22:33.802Z,100.00
2022-09-15T14:23:48.916Z,100.00
2022-09-15T14:25:47.389Z,100.00
2022-09-15T14:26:49.999Z,100.00
2022-09-15T14:27:52.455Z,100.00
2022-09-15T14:28:55.479Z,100.00
2022-09-15T14:29:55.413Z,100.00
2022-09-15T14:30:52.596Z,100.00
2022-09-15T14:32:00.368Z,100.00
2022-09-15T14:33:03.093Z,100.00
2022-09-15T14:34:01.768Z,100.00
2022-09-15T14:35:03.338Z,100.00
2022-09-15T14:36:17.793Z,100.00
2022-09-15T14:37:24.558Z,98.84
2022-09-15T14:40:41.435Z,99.07
2022-09-15T14:41:47.664Z,100.00
2022-09-15T14:42:48.092Z,99.64
2022-09-15T14:43:45.046Z,97.68
2022-09-15T14:46:21.155Z,100.00
2022-09-15T14:47:27.187Z,100.00
2022-09-15T14:48:30.779Z,100.00
2022-09-15T14:49:28.822Z,100.00
2022-09-15T14:50:31.854Z,100.00
2022-09-15T14:51:36.739Z,100.00
2022-09-15T14:52:45.902Z,100.00
2022-09-15T14:53:44.803Z,100.00
2022-09-15T14:58:35.736Z,100.00
2022-09-15T14:59:42.348Z,100.00
2022-09-15T15:00:53.999Z,100.00
2022-09-15T15:01:56.952Z,100.00
2022-09-15T15:03:28.282Z,100.00
2022-09-15T15:04:27.156Z,100.00
2022-09-15T15:05:40.655Z,100.00
2022-09-15T15:07:09.010Z,100.00
2022-09-15T15:08:06.253Z,100.00
2022-09-15T15:09:25.205Z,100.00
2022-09-15T15:10:33.399Z,100.00
2022-09-15T15:11:33.742Z,100.00
2022-09-15T15:12:55.298Z,100.00
2022-09-15T15:13:54.017Z,100.00
2022-09-15T15:14:53.229Z,100.00
2022-09-15T15:15:50.999Z,100.00